Time;durP1;ratioP1;P1;durP2;ratioP2;P2;SDS_P1;SDS_P2;PMS_P1;PMS_P2;Temp;Humidity;BMP_temperature;BMP_pressure;BME280_temperature;BME280_humidity;BME280_pressure;Samples;Min_cycle;Max_cycle;Signal;HPM_P1;HPM_P2
2021/05/31 00:00:29;;;;;;;4.18;3.72;;;;;;;;;;10280897;28;20069;-59
2021/05/31 00:05:27;;;;;;;18.90;4.70;;;;;;;;;;10281005;28;20052;-59
2021/05/31 00:10:25;;;;;;;4.78;4.38;;;;;;;;;;10280289;28;20077;-59
2021/05/31 00:15:23;;;;;;;5.55;5.03;;;;;;;;;;10280501;28;20072;-59
2021/05/31 00:20:22;;;;;;;6.85;4.13;;;;;;;;;;10279946;28;20056;-59
2021/05/31 00:25:20;;;;;;;5.03;4.53;;;;;;;;;;10279880;28;20048;-59
2021/05/31 00:30:22;;;;;;;5.25;4.75;;;;;;;;;;10278412;28;20099;-59
2021/05/31 00:35:21;;;;;;;6.30;4.35;;;;;;;;;;10279477;28;20052;-59
2021/05/31 00:40:19;;;;;;;4.38;3.97;;;;;;;;;;10279262;28;20055;-59
2021/05/31 00:45:17;;;;;;;5.30;4.72;;;;;;;;;;10278129;28;20077;-59
2021/05/31 00:50:16;;;;;;;6.57;4.40;;;;;;;;;;10278692;28;20072;-58
2021/05/31 00:55:14;;;;;;;5.40;4.60;;;;;;;;;;10277997;28;20073;-59
2021/05/31 01:00:12;;;;;;;5.38;4.88;;;;;;;;;;10278439;28;20096;-59
2021/05/31 01:05:10;;;;;;;5.85;5.25;;;;;;;;;;10277954;28;20057;-59
2021/05/31 01:10:14;;;;;;;6.63;4.68;;;;;;;;;;10278176;28;20095;-59
2021/05/31 01:15:15;;;;;;;5.43;4.53;;;;;;;;;;10278018;28;20049;-60
2021/05/31 01:20:22;;;;;;;5.75;5.03;;;;;;;;;;10277955;28;20037;-59
2021/05/31 01:25:30;;;;;;;5.57;4.85;;;;;;;;;;10277647;28;20084;-59
2021/05/31 01:30:29;;;;;;;5.25;4.72;;;;;;;;;;10277252;28;20076;-60
2021/05/31 01:35:28;;;;;;;4.90;4.40;;;;;;;;;;10276201;28;20425;-59
2021/05/31 01:40:26;;;;;;;5.68;5.15;;;;;;;;;;10277179;28;20081;-60
2021/05/31 01:45:24;;;;;;;5.25;4.75;;;;;;;;;;10276881;28;20083;-59
2021/05/31 01:50:23;;;;;;;8.32;5.50;;;;;;;;;;10276738;28;20068;-59
2021/05/31 01:55:22;;;;;;;7.70;6.18;;;;;;;;;;10276562;28;20498;-59
2021/05/31 02:00:20;;;;;;;6.47;5.22;;;;;;;;;;10276604;28;20520;-59
2021/05/31 02:05:20;;;;;;;5.68;4.90;;;;;;;;;;10276722;28;20426;-59
2021/05/31 02:10:19;;;;;;;5.85;5.25;;;;;;;;;;10274065;28;20426;-59
2021/05/31 02:15:19;;;;;;;4.78;4.28;;;;;;;;;;10276035;28;20072;-59
2021/05/31 02:20:18;;;;;;;7.07;5.10;;;;;;;;;;10275946;28;20107;-58
2021/05/31 02:25:16;;;;;;;7.00;3.95;;;;;;;;;;10275089;28;20048;-59
2021/05/31 02:30:16;;;;;;;6.05;4.85;;;;;;;;;;10275874;28;20091;-59
2021/05/31 02:35:16;;;;;;;10.98;5.43;;;;;;;;;;10275551;28;20083;-59
2021/05/31 02:40:14;;;;;;;4.78;4.25;;;;;;;;;;10274755;28;20041;-59
2021/05/31 02:45:13;;;;;;;11.18;4.20;;;;;;;;;;10274678;28;20080;-59
2021/05/31 02:50:14;;;;;;;6.68;3.65;;;;;;;;;;10275362;28;20115;-59
2021/05/31 02:55:13;;;;;;;5.00;3.47;;;;;;;;;;10275539;28;20041;-59
2021/05/31 03:00:11;;;;;;;4.22;3.78;;;;;;;;;;10272011;28;20084;-59
2021/05/31 03:05:11;;;;;;;4.43;3.28;;;;;;;;;;10271125;28;20115;-59
2021/05/31 03:10:12;;;;;;;4.03;3.55;;;;;;;;;;10272687;28;20072;-60
2021/05/31 03:15:11;;;;;;;4.78;4.28;;;;;;;;;;10263930;28;20092;-58
2021/05/31 03:20:09;;;;;;;6.45;3.75;;;;;;;;;;10267993;28;20072;-59
2021/05/31 03:25:07;;;;;;;5.45;3.92;;;;;;;;;;10275242;28;21313;-57
2021/05/31 03:30:09;;;;;;;4.78;3.47;;;;;;;;;;10278881;28;20076;-59
2021/05/31 03:35:07;;;;;;;8.20;3.88;;;;;;;;;;10276934;28;20084;-60
2021/05/31 03:40:06;;;;;;;8.73;3.97;;;;;;;;;;10274703;28;20080;-58
2021/05/31 03:45:06;;;;;;;5.15;4.30;;;;;;;;;;10274451;28;20068;-59
2021/05/31 03:50:06;;;;;;;3.88;3.47;;;;;;;;;;10274455;28;20081;-59
2021/05/31 03:55:05;;;;;;;4.15;3.63;;;;;;;;;;10274992;28;20076;-59
2021/05/31 04:00:03;;;;;;;4.28;3.80;;;;;;;;;;10276901;28;20188;-59
2021/05/31 04:05:02;;;;;;;4.03;3.63;;;;;;;;;;10279781;28;20521;-58
2021/05/31 04:15:17;;;;;;;6.18;4.18;;;;;;;;;;10278184;28;20103;-59
2021/05/31 04:20:15;;;;;;;4.45;4.00;;;;;;;;;;10278065;28;20041;-58
2021/05/31 04:25:14;;;;;;;7.57;3.92;;;;;;;;;;10277818;28;20450;-59
2021/05/31 04:30:13;;;;;;;6.13;3.47;;;;;;;;;;10276538;28;20524;-59
2021/05/31 04:35:11;;;;;;;6.97;4.10;;;;;;;;;;10277845;28;20045;-60
2021/05/31 04:40:09;;;;;;;4.65;4.07;;;;;;;;;;10276830;28;20041;-60
2021/05/31 04:45:09;;;;;;;5.05;3.10;;;;;;;;;;10277176;28;20045;-60
2021/05/31 04:50:07;;;;;;;7.18;4.22;;;;;;;;;;10277005;28;20076;-60
2021/05/31 04:55:14;;;;;;;7.43;3.58;;;;;;;;;;10276787;28;20417;-59
2021/05/31 05:00:14;;;;;;;5.18;3.60;;;;;;;;;;10276263;28;20484;-59
2021/05/31 05:05:12;;;;;;;4.28;3.88;;;;;;;;;;10276021;28;20084;-59
2021/05/31 05:10:11;;;;;;;5.03;4.53;;;;;;;;;;10275770;28;20095;-60
2021/05/31 05:15:09;;;;;;;4.35;3.70;;;;;;;;;;10258251;28;20041;-60
2021/05/31 05:20:09;;;;;;;5.88;4.65;;;;;;;;;;10243831;28;20081;-60
2021/05/31 05:25:07;;;;;;;38.72;31.90;;;;;;;;;;10235475;28;20470;-60
2021/05/31 05:30:06;;;;;;;5.88;4.40;;;;;;;;;;10235498;28;20141;-59
2021/05/31 05:35:09;;;;;;;4.65;4.15;;;;;;;;;;10234904;28;20069;-59
2021/05/31 05:40:38;;;;;;;7.38;4.95;;;;;;;;;;10235189;28;20111;-60
2021/05/31 05:45:50;;;;;;;4.10;3.70;;;;;;;;;;10234051;28;20073;-60
2021/05/31 05:50:48;;;;;;;5.47;4.57;;;;;;;;;;10234447;28;20089;-60
2021/05/31 05:55:47;;;;;;;4.47;4.07;;;;;;;;;;10234608;28;20065;-60
2021/05/31 06:00:45;;;;;;;4.18;3.78;;;;;;;;;;10233665;28;20109;-59
2021/05/31 06:05:43;;;;;;;6.72;6.13;;;;;;;;;;10234773;28;20096;-59
2021/05/31 06:10:41;;;;;;;11.38;10.38;;;;;;;;;;10230583;28;20091;-59
2021/05/31 06:15:41;;;;;;;7.22;6.47;;;;;;;;;;10229284;28;20069;-59
2021/05/31 06:20:39;;;;;;;6.35;5.75;;;;;;;;;;10229960;28;20092;-59
2021/05/31 06:25:37;;;;;;;4.30;3.90;;;;;;;;;;10231958;28;20046;-59
2021/05/31 06:30:35;;;;;;;4.35;3.90;;;;;;;;;;10233707;28;20077;-59
2021/05/31 06:35:36;;;;;;;6.38;4.82;;;;;;;;;;10231815;28;20068;-59
2021/05/31 06:40:34;;;;;;;5.00;4.03;;;;;;;;;;10233555;28;20088;-59
2021/05/31 06:45:32;;;;;;;4.90;3.85;;;;;;;;;;10233438;28;20506;-59
2021/05/31 06:50:31;;;;;;;4.53;4.05;;;;;;;;;;10233543;28;20080;-60
2021/05/31 06:55:31;;;;;;;5.45;4.15;;;;;;;;;;10238098;28;20042;-60
2021/05/31 07:00:28;;;;;;;5.15;3.55;;;;;;;;;;10241104;28;20084;-59
2021/05/31 07:05:27;;;;;;;4.80;4.30;;;;;;;;;;10240776;28;20077;-60
2021/05/31 07:10:27;;;;;;;4.82;4.32;;;;;;;;;;10240622;28;20088;-60
2021/05/31 07:15:27;;;;;;;5.15;4.65;;;;;;;;;;10240476;28;20052;-59
2021/05/31 07:20:25;;;;;;;4.70;4.13;;;;;;;;;;10238580;28;20088;-60
2021/05/31 07:25:23;;;;;;;8.45;5.72;;;;;;;;;;10239797;28;20486;-60
2021/05/31 07:30:21;;;;;;;11.52;5.03;;;;;;;;;;10239792;28;20498;-60
2021/05/31 07:35:20;;;;;;;45.92;39.55;;;;;;;;;;10239549;28;20084;-60
2021/05/31 07:40:18;;;;;;;5.63;4.35;;;;;;;;;;10239368;28;20041;-59
2021/05/31 07:45:17;;;;;;;6.13;4.95;;;;;;;;;;10239136;28;20080;-58
2021/05/31 07:50:16;;;;;;;6.57;5.47;;;;;;;;;;10238913;28;20187;-59
2021/05/31 07:55:16;;;;;;;4.35;3.72;;;;;;;;;;10238970;28;20076;-59
2021/05/31 08:00:15;;;;;;;5.45;3.90;;;;;;;;;;10237499;28;20061;-59
2021/05/31 08:05:14;;;;;;;8.18;5.18;;;;;;;;;;10238331;28;20073;-59
2021/05/31 08:10:12;;;;;;;4.97;4.57;;;;;;;;;;10238513;28;20091;-59
2021/05/31 08:15:12;;;;;;;5.40;4.90;;;;;;;;;;10238545;28;20052;-59
2021/05/31 08:20:11;;;;;;;5.63;4.05;;;;;;;;;;10238170;28;20081;-59
2021/05/31 08:25:09;;;;;;;5.45;4.93;;;;;;;;;;10238132;28;20081;-59
2021/05/31 08:30:08;;;;;;;5.32;4.88;;;;;;;;;;10237415;28;20081;-59
2021/05/31 08:35:07;;;;;;;5.05;4.55;;;;;;;;;;10236074;28;20546;-60
2021/05/31 08:40:06;;;;;;;6.65;5.85;;;;;;;;;;10237566;28;20073;-59
2021/05/31 08:45:04;;;;;;;5.25;4.70;;;;;;;;;;10237045;28;20370;-59
2021/05/31 08:50:02;;;;;;;5.03;4.63;;;;;;;;;;10237152;28;20045;-59
2021/05/31 08:55:01;;;;;;;6.75;5.95;;;;;;;;;;10235203;28;20502;-59
2021/05/31 09:00:02;;;;;;;5.53;4.97;;;;;;;;;;10236295;28;20050;-58
2021/05/31 09:04:59;;;;;;;7.65;5.43;;;;;;;;;;10234376;28;20053;-59
2021/05/31 09:09:57;;;;;;;7.50;6.30;;;;;;;;;;10235543;28;20081;-59
2021/05/31 09:14:57;;;;;;;7.32;6.47;;;;;;;;;;10234273;28;20064;-60
2021/05/31 09:19:55;;;;;;;8.57;6.82;;;;;;;;;;10234390;28;20058;-59
2021/05/31 09:24:54;;;;;;;5.47;4.50;;;;;;;;;;10235115;28;20065;-59
2021/05/31 09:30:00;;;;;;;6.03;5.07;;;;;;;;;;10235072;28;20495;-59
2021/05/31 09:34:59;;;;;;;6.53;5.88;;;;;;;;;;10234092;28;20045;-59
2021/05/31 09:39:58;;;;;;;5.43;4.93;;;;;;;;;;10233990;28;20100;-59
2021/05/31 09:45:00;;;;;;;9.82;7.05;;;;;;;;;;10234609;28;20553;-59
2021/05/31 09:49:59;;;;;;;6.07;5.07;;;;;;;;;;10234368;28;20463;-59
2021/05/31 09:54:57;;;;;;;7.63;5.32;;;;;;;;;;10234116;28;20081;-59
2021/05/31 09:59:56;;;;;;;6.93;6.13;;;;;;;;;;10234188;28;20085;-59
2021/05/31 10:05:06;;;;;;;8.02;5.65;;;;;;;;;;10233537;28;20432;-59
2021/05/31 10:10:05;;;;;;;6.60;6.00;;;;;;;;;;10233354;28;20552;-59
2021/05/31 10:15:22;;;;;;;6.43;5.55;;;;;;;;;;10234083;28;20033;-59
2021/05/31 10:20:21;;;;;;;6.85;6.25;;;;;;;;;;10233956;28;20506;-59
2021/05/31 10:25:20;;;;;;;6.82;6.22;;;;;;;;;;10233892;28;20045;-59
2021/05/31 10:30:20;;;;;;;6.38;5.88;;;;;;;;;;10238408;28;20085;-59
2021/05/31 10:35:18;;;;;;;7.65;6.47;;;;;;;;;;10241482;28;20077;-59
2021/05/31 10:40:18;;;;;;;4.53;4.00;;;;;;;;;;10241598;28;20050;-59
2021/05/31 10:45:26;;;;;;;5.82;5.22;;;;;;;;;;10241067;28;20045;-59
2021/05/31 10:50:31;;;;;;;7.28;4.97;;;;;;;;;;10241340;28;20053;-59
2021/05/31 10:55:30;;;;;;;4.32;3.25;;;;;;;;;;10240800;28;20042;-60
2021/05/31 11:00:29;;;;;;;3.28;2.97;;;;;;;;;;10241129;28;20054;-59
2021/05/31 11:05:31;;;;;;;3.90;3.58;;;;;;;;;;10241146;28;20045;-59
2021/05/31 11:10:31;;;;;;;3.85;3.47;;;;;;;;;;10240426;28;20048;-59
2021/05/31 11:15:34;;;;;;;4.47;3.67;;;;;;;;;;10240336;28;20418;-59
2021/05/31 11:20:33;;;;;;;5.50;3.95;;;;;;;;;;10240844;28;20116;-58
2021/05/31 11:25:32;;;;;;;3.53;3.22;;;;;;;;;;10240132;28;20045;-59
2021/05/31 11:30:33;;;;;;;2.58;2.25;;;;;;;;;;10239692;28;20068;-59
2021/05/31 11:35:31;;;;;;;4.53;2.30;;;;;;;;;;10239634;28;20042;-58
2021/05/31 11:40:39;;;;;;;2.53;2.30;;;;;;;;;;10238871;28;20411;-60
2021/05/31 11:45:38;;;;;;;2.80;2.50;;;;;;;;;;10239568;28;20080;-59
2021/05/31 11:50:40;;;;;;;2.60;2.40;;;;;;;;;;10239570;28;20251;-60
2021/05/31 11:55:40;;;;;;;4.35;3.85;;;;;;;;;;10236970;28;20050;-60
2021/05/31 12:00:40;;;;;;;2.83;2.55;;;;;;;;;;10238769;28;20041;-59
2021/05/31 12:05:39;;;;;;;3.22;2.60;;;;;;;;;;10239347;28;20509;-59
2021/05/31 12:10:37;;;;;;;2.53;2.30;;;;;;;;;;10238679;28;20085;-59
2021/05/31 12:15:38;;;;;;;5.97;2.92;;;;;;;;;;10238544;28;20369;-60
2021/05/31 12:20:35;;;;;;;4.22;1.98;;;;;;;;;;10237436;28;20080;-60
2021/05/31 12:25:33;;;;;;;2.10;1.90;;;;;;;;;;10238287;28;20061;-61
2021/05/31 12:30:31;;;;;;;2.03;1.92;;;;;;;;;;10238187;28;20458;-59
2021/05/31 12:35:31;;;;;;;3.33;2.53;;;;;;;;;;10238177;28;20087;-59
2021/05/31 12:40:30;;;;;;;4.13;2.72;;;;;;;;;;10236458;28;20073;-59
2021/05/31 12:45:31;;;;;;;4.28;2.78;;;;;;;;;;10237224;28;20103;-59
2021/05/31 12:50:33;;;;;;;5.38;3.17;;;;;;;;;;10236374;28;20084;-59
2021/05/31 12:55:33;;;;;;;2.97;2.72;;;;;;;;;;10235758;28;20085;-60
2021/05/31 13:00:30;;;;;;;4.07;3.65;;;;;;;;;;10236704;28;20180;-59
2021/05/31 13:05:31;;;;;;;5.95;4.40;;;;;;;;;;10237014;28;20104;-59
2021/05/31 13:10:31;;;;;;;9.85;4.97;;;;;;;;;;10236652;28;20041;-59
2021/05/31 13:15:37;;;;;;;7.40;4.63;;;;;;;;;;10234614;28;20418;-59
2021/05/31 13:20:35;;;;;;;6.78;3.00;;;;;;;;;;10236121;28;20267;-59
2021/05/31 13:25:36;;;;;;;2.47;2.28;;;;;;;;;;10235512;28;20045;-60
2021/05/31 13:30:35;;;;;;;3.17;2.88;;;;;;;;;;10235700;28;20092;-60
2021/05/31 13:35:33;;;;;;;2.78;2.50;;;;;;;;;;10235551;28;20089;-59
2021/05/31 13:40:31;;;;;;;2.67;2.35;;;;;;;;;;10235464;28;20088;-59
2021/05/31 13:45:31;;;;;;;2.92;2.50;;;;;;;;;;10235336;28;20514;-60
2021/05/31 13:50:30;;;;;;;3.15;2.50;;;;;;;;;;10234739;28;20099;-60
2021/05/31 13:55:28;;;;;;;3.10;2.85;;;;;;;;;;10234651;28;20167;-60
2021/05/31 14:00:26;;;;;;;2.83;2.53;;;;;;;;;;10234905;28;20096;-59
2021/05/31 14:05:26;;;;;;;6.90;3.40;;;;;;;;;;10234580;28;20068;-59
2021/05/31 14:10:24;;;;;;;2.60;2.35;;;;;;;;;;10234179;28;20079;-59
2021/05/31 14:15:23;;;;;;;2.40;2.10;;;;;;;;;;10233613;28;20077;-59
2021/05/31 14:20:21;;;;;;;4.07;2.90;;;;;;;;;;10234093;28;20077;-59
2021/05/31 14:25:20;;;;;;;3.33;2.40;;;;;;;;;;10233703;28;20077;-59
2021/05/31 14:30:19;;;;;;;5.55;2.15;;;;;;;;;;10234415;28;20077;-60
2021/05/31 14:35:17;;;;;;;2.70;1.90;;;;;;;;;;10241901;28;20084;-60
2021/05/31 14:40:15;;;;;;;2.83;2.63;;;;;;;;;;10271480;28;20065;-60
2021/05/31 14:45:14;;;;;;;3.78;2.60;;;;;;;;;;10264862;28;20116;-59
2021/05/31 14:50:13;;;;;;;4.85;2.28;;;;;;;;;;10253439;28;20075;-57
2021/05/31 14:55:16;;;;;;;3.57;3.10;;;;;;;;;;10278849;28;20072;-58
2021/05/31 15:00:17;;;;;;;4.85;3.00;;;;;;;;;;10261254;28;20072;-59
2021/05/31 15:05:17;;;;;;;6.32;2.55;;;;;;;;;;10269905;28;20461;-54
2021/05/31 15:10:15;;;;;;;4.65;3.10;;;;;;;;;;10247759;28;20077;-59
2021/05/31 15:15:13;;;;;;;7.53;3.20;;;;;;;;;;10277651;28;20600;-58
2021/05/31 15:20:13;;;;;;;3.38;2.65;;;;;;;;;;10279067;28;20048;-58
2021/05/31 15:25:11;;;;;;;4.90;2.65;;;;;;;;;;10282228;28;20531;-56
2021/05/31 15:30:09;;;;;;;3.20;2.90;;;;;;;;;;10271353;28;20064;-58
2021/05/31 15:35:08;;;;;;;3.17;2.88;;;;;;;;;;10263532;28;20099;-59
2021/05/31 15:40:08;;;;;;;3.22;2.92;;;;;;;;;;10254074;28;20494;-57
2021/05/31 15:45:08;;;;;;;4.53;3.67;;;;;;;;;;10269903;28;20076;-58
2021/05/31 15:50:07;;;;;;;7.13;3.55;;;;;;;;;;10250265;28;20081;-58
2021/05/31 15:55:06;;;;;;;3.08;2.42;;;;;;;;;;10251683;28;20314;-58
2021/05/31 16:00:06;;;;;;;4.35;3.88;;;;;;;;;;10262313;28;20091;-59
2021/05/31 16:05:08;;;;;;;2.92;2.60;;;;;;;;;;10280756;28;20067;-61
2021/05/31 16:10:07;;;;;;;3.50;2.40;;;;;;;;;;10281032;28;20665;-58
2021/05/31 16:15:08;;;;;;;5.72;2.70;;;;;;;;;;10280455;28;20087;-59
2021/05/31 16:20:09;;;;;;;7.80;2.93;;;;;;;;;;10280258;28;20049;-59
2021/05/31 16:25:14;;;;;;;3.83;3.08;;;;;;;;;;10269401;28;20069;-58
2021/05/31 16:30:14;;;;;;;13.05;4.43;;;;;;;;;;10266097;28;20064;-58
2021/05/31 16:35:12;;;;;;;4.68;2.70;;;;;;;;;;10271541;28;20080;-60
2021/05/31 16:40:11;;;;;;;6.50;3.42;;;;;;;;;;10277823;28;20077;-59
2021/05/31 16:45:12;;;;;;;6.38;2.72;;;;;;;;;;10276954;28;20307;-60
2021/05/31 16:50:12;;;;;;;4.18;2.60;;;;;;;;;;10277355;28;20072;-60
2021/05/31 16:55:11;;;;;;;5.57;2.58;;;;;;;;;;10277542;28;20092;-60
2021/05/31 17:00:10;;;;;;;5.90;3.03;;;;;;;;;;10265764;28;20077;-60
2021/05/31 17:05:11;;;;;;;8.02;2.95;;;;;;;;;;10265665;28;20520;-60
2021/05/31 17:10:17;;;;;;;5.22;2.83;;;;;;;;;;10276764;28;20067;-60
2021/05/31 17:15:20;;;;;;;3.85;2.88;;;;;;;;;;10260072;28;20481;-57
2021/05/31 17:20:20;;;;;;;6.05;2.90;;;;;;;;;;10259165;28;20072;-58
2021/05/31 17:25:20;;;;;;;3.33;2.67;;;;;;;;;;10251710;28;20072;-59
2021/05/31 17:30:23;;;;;;;4.22;2.95;;;;;;;;;;10267449;28;20559;-59
2021/05/31 17:35:22;;;;;;;4.80;2.60;;;;;;;;;;10262418;28;20079;-58
2021/05/31 17:40:21;;;;;;;3.90;2.67;;;;;;;;;;10253606;28;20079;-59
2021/05/31 17:45:20;;;;;;;3.58;3.08;;;;;;;;;;10262046;28;20100;-57
2021/05/31 17:50:34;;;;;;;5.03;3.00;;;;;;;;;;10259593;28;20061;-59
2021/05/31 17:55:36;;;;;;;3.50;3.20;;;;;;;;;;10253013;28;20095;-60
2021/05/31 18:00:34;;;;;;;4.78;2.92;;;;;;;;;;10268375;28;20065;-57
2021/05/31 18:05:32;;;;;;;4.03;2.67;;;;;;;;;;10269441;28;20107;-60
2021/05/31 18:10:31;;;;;;;8.05;3.60;;;;;;;;;;10270507;28;20064;-59
2021/05/31 18:15:30;;;;;;;4.45;3.13;;;;;;;;;;10252745;28;20481;-60
2021/05/31 18:20:29;;;;;;;4.25;2.88;;;;;;;;;;10258698;28;20505;-60
2021/05/31 18:25:27;;;;;;;6.57;2.90;;;;;;;;;;10273928;28;20045;-59
2021/05/31 18:30:26;;;;;;;10.18;3.08;;;;;;;;;;10272693;28;20110;-60
2021/05/31 18:35:36;;;;;;;5.40;3.20;;;;;;;;;;10275724;28;20072;-59
2021/05/31 18:40:34;;;;;;;4.43;3.08;;;;;;;;;;10275985;28;20441;-58
2021/05/31 18:45:33;;;;;;;5.32;3.63;;;;;;;;;;10275813;28;20365;-60
2021/05/31 18:50:32;;;;;;;11.10;9.20;;;;;;;;;;10278538;28;20378;-59
2021/05/31 18:55:30;;;;;;;15.60;14.05;;;;;;;;;;10282960;28;20080;-59
2021/05/31 19:00:31;;;;;;;12.77;7.55;;;;;;;;;;10281956;28;20445;-61
2021/05/31 19:05:29;;;;;;;6.68;4.65;;;;;;;;;;10282668;28;20057;-60
2021/05/31 19:10:30;;;;;;;6.88;4.90;;;;;;;;;;10282284;28;20041;-61
2021/05/31 19:15:28;;;;;;;6.15;4.45;;;;;;;;;;10280689;28;20068;-59
2021/05/31 19:20:26;;;;;;;5.32;4.28;;;;;;;;;;10280381;28;20069;-60
2021/05/31 19:25:25;;;;;;;11.43;6.80;;;;;;;;;;10281428;28;20069;-60
2021/05/31 19:30:25;;;;;;;7.50;5.75;;;;;;;;;;10277842;28;20091;-60
2021/05/31 19:35:24;;;;;;;9.90;4.50;;;;;;;;;;10281960;28;20486;-60
2021/05/31 19:40:22;;;;;;;8.15;5.10;;;;;;;;;;10278688;28;20068;-58
2021/05/31 19:45:22;;;;;;;7.32;5.40;;;;;;;;;;10274116;28;20501;-59
2021/05/31 19:50:22;;;;;;;9.50;5.85;;;;;;;;;;10259732;28;20517;-59
2021/05/31 20:00:34;;;;;;;7.60;5.28;;;;;;;;;;10265850;28;20057;-59
2021/05/31 20:05:34;;;;;;;6.03;5.40;;;;;;;;;;10260695;28;20076;-59
2021/05/31 20:10:32;;;;;;;10.73;4.85;;;;;;;;;;10277284;28;20053;-59
2021/05/31 20:15:45;;;;;;;6.13;4.50;;;;;;;;;;10278352;28;20076;-59
2021/05/31 20:20:45;;;;;;;5.93;4.88;;;;;;;;;;10279197;28;20425;-58
2021/05/31 20:25:43;;;;;;;18.55;5.63;;;;;;;;;;10278817;28;20053;-59
2021/05/31 20:30:44;;;;;;;5.85;5.35;;;;;;;;;;10278438;28;20073;-59
2021/05/31 20:35:42;;;;;;;9.85;6.93;;;;;;;;;;10267672;28;20069;-59
2021/05/31 20:40:41;;;;;;;8.82;5.82;;;;;;;;;;10266791;28;20071;-60
2021/05/31 20:45:39;;;;;;;8.45;4.25;;;;;;;;;;10255066;28;20053;-59
2021/05/31 20:50:37;;;;;;;9.32;3.58;;;;;;;;;;10230625;28;20084;-59
2021/05/31 20:55:35;;;;;;;11.25;4.63;;;;;;;;;;10259684;28;20504;-59
2021/05/31 21:00:35;;;;;;;17.88;8.55;;;;;;;;;;10269545;28;20069;-59
2021/05/31 21:05:33;;;;;;;7.13;3.97;;;;;;;;;;10278312;28;20055;-59
2021/05/31 21:10:33;;;;;;;5.85;3.25;;;;;;;;;;10277732;28;20060;-59
2021/05/31 21:15:33;;;;;;;8.27;3.50;;;;;;;;;;10276110;28;20478;-60
2021/05/31 21:20:34;;;;;;;5.93;4.03;;;;;;;;;;10277966;28;20096;-59
2021/05/31 21:25:32;;;;;;;6.72;2.97;;;;;;;;;;10273713;28;20087;-59
2021/05/31 21:30:30;;;;;;;3.90;3.10;;;;;;;;;;10274574;28;20107;-59
2021/05/31 21:35:28;;;;;;;3.58;3.00;;;;;;;;;;10274597;28;20099;-59
2021/05/31 21:40:27;;;;;;;2.92;2.50;;;;;;;;;;10277063;28;20126;-59
2021/05/31 21:45:25;;;;;;;3.65;3.17;;;;;;;;;;10277238;28;20041;-59
2021/05/31 21:50:23;;;;;;;6.05;3.40;;;;;;;;;;10276983;28;20076;-59
2021/05/31 21:55:21;;;;;;;5.00;3.15;;;;;;;;;;10276833;28;20102;-59
2021/05/31 22:00:21;;;;;;;3.05;2.75;;;;;;;;;;10275830;28;20076;-60
2021/05/31 22:05:19;;;;;;;4.70;3.00;;;;;;;;;;10276907;28;20100;-60
2021/05/31 22:10:20;;;;;;;6.35;2.80;;;;;;;;;;10276902;28;20037;-59
2021/05/31 22:15:20;;;;;;;7.82;3.15;;;;;;;;;;10276023;28;20096;-60
2021/05/31 22:20:21;;;;;;;3.03;2.72;;;;;;;;;;10276292;28;20044;-60
2021/05/31 22:25:20;;;;;;;3.70;2.83;;;;;;;;;;10283609;28;20107;-60
2021/05/31 22:35:36;;;;;;;4.93;2.90;;;;;;;;;;10289299;28;20544;-60
2021/05/31 22:40:37;;;;;;;6.70;2.90;;;;;;;;;;10289591;28;20053;-60
2021/05/31 22:45:57;;;;;;;6.07;2.80;;;;;;;;;;10289206;28;20049;-60
2021/05/31 22:56:45;;;;;;;5.57;3.20;;;;;;;;;;10287877;28;20091;-61
2021/05/31 23:01:58;;;;;;;5.10;3.78;;;;;;;;;;10288757;28;20064;-60
2021/05/31 23:12:26;;;;;;;5.03;3.05;;;;;;;;;;10281925;28;20045;-61
2021/05/31 23:17:25;;;;;;;6.18;3.50;;;;;;;;;;10287225;28;20084;-60
2021/05/31 23:22:25;;;;;;;4.57;2.72;;;;;;;;;;10288075;28;20044;-59
2021/05/31 23:27:23;;;;;;;6.00;3.10;;;;;;;;;;10287570;28;20048;-60
2021/05/31 23:32:21;;;;;;;7.82;3.50;;;;;;;;;;10287478;28;20056;-60
2021/05/31 23:37:19;;;;;;;6.13;3.20;;;;;;;;;;10282344;28;20076;-60
2021/05/31 23:42:19;;;;;;;4.18;3.20;;;;;;;;;;10281042;28;20406;-60
2021/05/31 23:47:17;;;;;;;3.65;3.30;;;;;;;;;;10280784;28;20048;-60
2021/05/31 23:52:15;;;;;;;8.45;3.45;;;;;;;;;;10280716;28;20045;-59
2021/05/31 23:57:13;;;;;;;3.20;2.92;;;;;;;;;;10280468;28;20080;-60
